Flight Number: EUR1568 Duration: 2:45
Departure: Heraklion (Crete) (LGIR) at 08:00 Distance: 1393 Nm
Arrival: Basel-Mulhouse (LFSB) at 10:45 Equipment: A321

Weather Information
Heraklion Airport , Greece (LGIR) 35-20N 025-11E 39M Nov 19, 2018 - 04:50 PM EST / 2018.11.19 2150 UTC
Wind: from the SSE (160 degrees) at 9 MPH (8 KT):0
Visibility: greater than 7 mile(s):0
Sky conditions: mostly clear Temperature: 60 F (16 C) Dew Point: 59 F (15 C) Relative Humidity: 93% Pressure (altimeter): 30.03 in. Hg (1017 hPa)
ob: LGIR 192150Z 16008KT 9999 FEW020 16/15 Q1017 NOSIG cycle: 22
Sunrise: 05:01 Sunset: 15:07 (UTC)

Bale-Mulhouse, France (LFSB) 47-36N 007-31E 271M Nov 19, 2018 - 05:00 PM EST / 2018.11.19 2200 UTC
Wind: from the NNW (340 degrees) at 5 MPH (4 KT):0
Visibility: 3 mile(s):0
Sky conditions: overcast Temperature: 33 F (1 C)
Windchill: 28 F (-2 C):1 Dew Point: 32 F (0 C) Relative Humidity: 93% Pressure (altimeter): 29.68 in. Hg (1005 hPa)
ob: LFSB 192200Z 34004KT 6000 FEW008 OVC030 01/M00 Q1005 TEMPO 3000 BR OVC010 cycle: 22
Sunrise: 06:45 Sunset: 15:45 (UTC)

TAF:2018/11/19 21:34 TAF AMD LFSB 192127Z 1921/2018 VRB02KT 6000 BKN025 TEMPO 1921/2010 3000 BR OVC010 PROB40 TEMPO 2000/2010 OVC003 BECMG 2010/2012 CAVOK

Previous Pireps for this route
Date Aircraft Flight time Fuel used Landing rate On time
2013-03-23A32103.1327288-278Charter
2016-05-15A32102.4716007-129Yes
(pireps marked green are flown by you)

Route map